M I D A S
Marine Information and Data Acquisition System
Tripno 1773 of the Zeeleeuw from 2009-09-09 06:36:56 to 2009-09-09 15:09:02
Back to CruiseResearch ActivitiesStationsMapUnderway DataData graphs

EquipmentUnitsComment
TimeDGPSUTC
LatitudeDGPSDM.mWGS84
LongitudeDGPSDM.mWGS84
TemperatureSBE03/SBE38deg celciusITS90
ConductivitySBE21S/mITS90
SalinitySBE21 Practical Salinity Units
ChlorophylAChelsea fluorimeterg/lCalibrated in Aceton
Missing or incorrect values are displayed as -999
Sea surface data collected by the RV Zeeleeuw from 2009-09-09 06:28:54 to 2009-09-09 15:19:10
Time Latitude Longitude Temperature Conductivity Salinity ChlorophylA
2009-09-09 06:30:03 51°13.68 2°55.882 21.8073 0.0455 0.231205 17.142764
2009-09-09 06:31:03 51°13.715 2°55.79 21.8131 0.046221 0.234954 17.10794
2009-09-09 06:32:02 51°13.746 2°55.741 21.7962 0.045809 0.232848 17.10794
2009-09-09 06:33:03 51°13.796 2°55.676 21.8098 0.045603 0.231803 17.073116
2009-09-09 06:34:03 51°13.857 2°55.626 21.8228 0.046529 0.236626 17.003468
2009-09-09 06:35:02 51°13.903 2°55.632 21.8334 0.046118 0.234518 17.003468
2009-09-09 06:36:00 51°13.907 2°55.624 21.7985 0.047353 0.24093 16.968644
2009-09-09 06:36:59 51°13.907 2°55.623 21.7016 0.046015 0.233997 16.968644
2009-09-09 06:37:59 51°13.966 2°55.547 21.7832 0.057129 0.292082 16.968644
2009-09-09 06:38:58 51°14.078 2°55.443 21.7598 0.056203 0.287172 16.933819
2009-09-09 06:39:59 51°14.202 2°55.324 21.8145 0.05857 0.299601 16.898995
2009-09-09 06:40:59 51°14.3 2°55.154 21.7611 0.0561 0.287396 16.864171
2009-09-09 06:41:59 51°14.382 2°54.938 21.7848 0.057438 0.295116 16.794523
2009-09-09 06:42:58 51°14.392 2°54.656 21.7013 0.05929 0.30582 16.759699
2009-09-09 06:43:59 51°14.321 2°54.356 21.6678 0.075138 0.389946 24.734408
2009-09-09 06:44:59 51°14.247 2°54.066 21.7623 0.089546 0.468267 25.36124
2009-09-09 06:45:58 51°14.173 2°53.775 21.7439 0.074521 0.38695 26.440786
2009-09-09 06:46:59 51°14.086 2°53.484 21.7493 0.069067 0.358162 27.973045
2009-09-09 06:47:59 51°13.98 2°53.218 21.6884 0.069684 0.361629 29.122238
2009-09-09 06:48:58 51°13.877 2°52.957 21.7141 0.090472 0.473958 30.097312
2009-09-09 06:49:59 51°13.783 2°52.674 21.7638 0.092016 0.482428 30.898265
2009-09-09 06:50:58 51°13.695 2°52.396 21.7155 0.062069 0.321218 31.350978
2009-09-09 06:51:59 51°13.602 2°52.112 21.7889 0.11826 0.626394 31.942987
2009-09-09 06:52:58 51°13.478 2°51.874 21.7556 0.063715 0.330127 32.117107
2009-09-09 06:53:59 51°13.323 2°51.667 21.7625 0.062377 0.323077 32.395699
2009-09-09 06:54:59 51°13.152 2°51.592 21.797 0.063304 0.328036 32.639468
2009-09-09 06:55:59 51°13.052 2°51.587 21.7997 0.064744 0.335778 32.813588
2009-09-09 06:56:58 51°12.987 2°51.543 21.8048 0.058981 0.305021 32.952884
2009-09-09 06:57:59 51°12.939 2°51.473 21.8132 0.067214 0.349005 33.09218
2009-09-09 06:58:59 51°12.9 2°51.402 21.8191 0.061348 0.317935 33.266301
2009-09-09 06:59:59 51°12.863 2°51.335 21.8264 0.063406 0.328914 33.301125
2009-09-09 07:00:59 51°12.833 2°51.258 21.8344 0.060937 0.315728 33.335949
2009-09-09 07:01:59 51°12.813 2°51.156 21.8414 0.076065 0.396827 33.370773
2009-09-09 07:02:59 51°12.8 2°51.046 21.8445 0.076373 0.398656 33.475245
2009-09-09 07:03:59 51°12.786 2°50.936 21.8553 0.068346 0.355571 33.510069
2009-09-09 07:04:59 51°12.76 2°50.83 21.8728 0.069272 0.360574 33.475245
2009-09-09 07:05:59 51°12.73 2°50.732 21.8661 0.072771 0.379378 33.440421
2009-09-09 07:06:59 51°12.692 2°50.644 21.884 0.065568 0.340773 33.510069
2009-09-09 07:07:59 51°12.652 2°50.559 21.8976 0.068449 0.356247 33.405597
2009-09-09 07:08:59 51°12.611 2°50.472 21.9037 0.06742 0.350759 33.440421
2009-09-09 07:09:59 51°12.571 2°50.384 21.9107 0.064847 0.337059 33.370773
2009-09-09 07:10:59 51°12.532 2°50.296 21.95 0.076682 0.400701 33.405597
2009-09-09 07:11:59 51°12.494 2°50.209 21.9577 0.068552 0.357041 33.335949
2009-09-09 07:12:59 51°12.456 2°50.124 21.9649 0.07308 0.381425 33.335949
2009-09-09 07:13:59 51°12.421 2°50.041 21.9795 0.069067 0.359839 33.266301
2009-09-09 07:14:59 51°12.387 2°49.955 21.9892 0.073595 0.384229 33.301125
2009-09-09 07:15:59 51°12.353 2°49.87 21.9823 0.080696 0.422726 33.231477
2009-09-09 07:16:59 51°12.319 2°49.782 21.9858 0.07061 0.36831 33.231477
2009-09-09 07:17:59 51°12.286 2°49.696 22.0055 0.074933 0.391612 33.127004
2009-09-09 07:18:59 51°12.253 2°49.611 22.0063 0.068243 0.355613 33.231477
2009-09-09 07:19:58 51°12.219 2°49.527 22.0201 0.062172 0.323138 33.127004
2009-09-09 07:20:59 51°12.185 2°49.439 22.0251 0.067729 0.352892 33.022532
2009-09-09 07:21:59 51°12.151 2°49.354 22.0417 0.070507 0.367933 32.952884
2009-09-09 07:22:59 51°12.116 2°49.269 22.0511 0.069581 0.363053 32.91806
2009-09-09 07:23:58 51°12.083 2°49.185 22.047 0.070816 0.369668 32.952884
2009-09-09 07:24:59 51°12.049 2°49.096 22.0579 0.069478 0.36253 32.883236
2009-09-09 07:25:59 51°12.015 2°49.01 22.0673 0.065053 0.338843 32.952884
2009-09-09 07:26:59 51°11.982 2°48.925 22.0879 0.063304 0.329499 32.74394
2009-09-09 07:27:59 51°11.948 2°48.839 22.101 0.076373 0.399844 32.674292
2009-09-09 07:28:59 51°11.913 2°48.753 22.1034 0.065362 0.340554 32.778764
2009-09-09 07:29:59 51°11.882 2°48.666 22.1174 0.066905 0.348919 32.709116
2009-09-09 07:30:59 51°11.853 2°48.578 22.1184 0.068346 0.356692 32.74394
2009-09-09 07:31:59 51°11.833 2°48.491 22.13 0.074933 0.392186 32.639468
2009-09-09 07:32:59 51°11.818 2°48.405 22.1416 0.07874 0.412845 32.604644
2009-09-09 07:33:59 51°11.808 2°48.319 22.1479 0.067214 0.350717 32.639468
2009-09-09 07:34:59 51°11.8 2°48.251 22.1551 0.06814 0.355762 32.639468
2009-09-09 07:35:59 51°11.788 2°48.2 22.1796 0.071742 0.375161 32.604644
2009-09-09 07:36:59 51°11.795 2°48.137 22.1744 0.05929 0.308398 32.56982
2009-09-09 07:37:58 51°11.838 2°48.146 22.2083 0.068346 0.356952 32.604644
2009-09-09 07:38:59 51°11.921 2°48.295 22.2088 0.048485 0.250974 32.534996
2009-09-09 07:39:59 51°12.025 2°48.474 22.2169 0.05363 0.278264 32.56982
2009-09-09 07:40:59 51°12.123 2°48.663 22.2185 0.05044 0.261383 32.56982
2009-09-09 07:41:59 51°12.222 2°48.854 22.2252 0.051675 0.267969 32.430523
2009-09-09 07:42:59 51°12.317 2°49.038 22.2372 0.051572 0.267437 32.465347
2009-09-09 07:43:58 51°12.413 2°49.224 22.2387 0.049205 0.254925 32.534996
2009-09-09 07:44:59 51°12.513 2°49.416 22.2498 0.04972 0.257698 32.500171
2009-09-09 07:45:59 51°12.612 2°49.603 22.263 0.051057 0.264796 32.534996
2009-09-09 07:46:59 51°12.707 2°49.789 22.2602 0.047764 0.247433 32.534996
2009-09-09 07:47:59 51°12.803 2°49.976 22.274 0.047559 0.246402 32.500171
2009-09-09 07:48:59 51°12.897 2°50.161 22.2799 0.047147 0.24424 32.56982
2009-09-09 07:49:59 51°12.994 2°50.346 22.2973 0.048382 0.250753 33.09218
2009-09-09 07:50:59 51°13.088 2°50.534 22.3069 0.05044 0.261674 33.127004
2009-09-09 07:51:59 51°13.182 2°50.72 22.3112 0.049823 0.258483 33.127004
2009-09-09 07:52:59 51°13.263 2°50.922 22.325 0.055174 0.286926 33.09218
2009-09-09 07:53:59 51°13.342 2°51.117 22.3331 0.048073 0.24928 33.127004
2009-09-09 07:54:59 51°13.381 2°51.2 22.3384 0.050131 0.260217 33.127004
2009-09-09 07:55:59 51°13.377 2°51.198 22.3479 0.053733 0.279407 33.09218
2009-09-09 07:56:59 51°13.357 2°51.179 22.3604 0.057232 0.298101 33.127004
2009-09-09 07:57:59 51°13.332 2°51.152 22.3745 0.051881 0.269626 33.057356
2009-09-09 07:58:59 51°13.307 2°51.119 22.3934 0.051366 0.266861 33.057356
2009-09-09 07:59:59 51°13.282 2°51.086 22.4108 0.051881 0.269608 33.057356
2009-09-09 08:00:59 51°13.257 2°51.053 22.4326 0.052807 0.274556 33.161829
2009-09-09 08:01:59 51°13.233 2°51.019 22.4494 0.050646 0.263153 33.09218
2009-09-09 08:02:59 51°13.208 2°50.986 22.4681 0.05116 0.265947 33.057356
2009-09-09 08:03:59 51°13.166 2°50.983 22.4832 0.05044 0.262155 33.161829
2009-09-09 08:04:59 51°13.096 2°50.913 22.5105 0.09181 0.486057 33.161829
2009-09-09 08:05:59 51°13.026 2°50.694 22.5324 0.067626 0.354383 33.09218
2009-09-09 08:06:59 51°12.926 2°50.414 22.564 0.097676 0.518431 33.09218
2009-09-09 08:07:59 51°12.819 2°50.133 22.5902 0.104675 0.557301 33.09218
2009-09-09 08:08:59 51°12.706 2°49.862 22.6081 0.067626 0.354608 33.127004
2009-09-09 08:09:59 51°12.585 2°49.596 22.634 0.099323 0.527987 33.127004
2009-09-09 08:10:59 51°12.466 2°49.329 22.653 0.069993 0.367557 33.057356
2009-09-09 08:11:59 51°12.361 2°49.05 22.6756 0.104881 0.55899 33.09218
2009-09-09 08:12:59 51°12.262 2°48.766 22.7049 0.065465 0.343256 33.057356
2009-09-09 08:13:59 51°12.159 2°48.483 22.7163 0.073595 0.387339 33.022532
2009-09-09 08:14:59 51°12.055 2°48.201 22.7397 0.107556 0.574265 32.91806
2009-09-09 08:15:59 51°11.953 2°47.919 22.7625 0.077814 0.410596 32.91806
2009-09-09 08:16:59 51°11.851 2°47.638 22.7831 0.064642 0.339113 33.057356
2009-09-09 08:17:59 51°11.749 2°47.356 22.8012 0.060834 0.318639 32.987708
2009-09-09 08:18:59 51°11.645 2°47.076 22.8243 0.107042 0.571872 33.196653
2009-09-09 08:19:59 51°11.542 2°46.795 22.8504 0.060937 0.319273 33.301125
2009-09-09 08:20:59 51°11.44 2°46.513 22.8676 0.071331 0.37558 33.127004
2009-09-09 08:21:59 51°11.336 2°46.236 22.8831 0.116304 0.623751 33.127004
2009-09-09 08:22:59 51°11.235 2°45.958 22.9042 0.135344 0.730933 32.987708
2009-09-09 08:23:59 51°11.133 2°45.678 22.9306 0.078432 0.414601 33.022532
2009-09-09 08:24:59 51°11.032 2°45.396 22.9514 0.118877 0.638664 33.057356
2009-09-09 08:25:59 51°10.928 2°45.119 22.9717 0.115584 0.620338 33.022532
2009-09-09 08:26:59 51°10.826 2°44.845 22.9894 0.058467 0.306453 32.813588
2009-09-09 08:27:59 51°10.759 2°44.665 23.0105 0.076168 0.402485 32.778764
2009-09-09 08:28:59 51°10.724 2°44.553 23.0331 0.07236 0.381797 32.778764
2009-09-09 08:29:59 51°10.706 2°44.44 23.0638 0.078226 0.413979 32.74394
2009-09-09 08:30:59 51°10.696 2°44.331 23.0875 0.072051 0.380224 32.883236
2009-09-09 08:31:59 51°10.682 2°44.222 23.1093 0.074212 0.392224 32.778764
2009-09-09 08:32:59 51°10.668 2°44.114 23.1353 0.076991 0.407464 32.778764
2009-09-09 08:33:59 51°10.655 2°44.018 23.1633 0.069375 0.365979 32.848412
2009-09-09 08:34:59 51°10.643 2°43.927 23.1883 0.066906 0.352691 32.883236
2009-09-09 08:35:59 51°10.633 2°43.833 23.2146 0.075962 0.402087 32.848412
2009-09-09 08:36:59 51°10.619 2°43.738 23.24 0.076682 0.406077 32.883236
2009-09-09 08:37:59 51°10.605 2°43.643 23.2707 0.084504 0.449187 32.813588
2009-09-09 08:38:59 51°10.588 2°43.548 23.2931 0.071948 0.380439 32.848412
2009-09-09 08:39:59 51°10.567 2°43.451 23.313 0.084298 0.44829 32.91806
2009-09-09 08:40:59 51°10.546 2°43.354 23.3334 0.083269 0.442818 32.848412
2009-09-09 08:41:59 51°10.52 2°43.258 23.3593 0.072566 0.384154 32.952884
2009-09-09 08:42:59 51°10.497 2°43.16 23.3852 0.072154 0.381911 32.883236
2009-09-09 08:43:59 51°10.47 2°43.065 23.412 0.080387 0.427109 32.848412
2009-09-09 08:44:59 51°10.445 2°42.97 23.4386 0.083474 0.444322 32.813588
2009-09-09 08:45:59 51°10.419 2°42.874 23.4615 0.06917 0.365765 32.883236
2009-09-09 08:46:59 51°10.395 2°42.778 23.4889 0.070199 0.371568 32.883236
2009-09-09 08:47:59 51°10.373 2°42.681 23.5104 0.073183 0.387977 32.883236
2009-09-09 08:48:59 51°10.35 2°42.586 23.5418 0.075139 0.398968 32.952884
2009-09-09 08:49:59 51°10.326 2°42.492 23.5554 0.071022 0.376467 32.91806
2009-09-09 08:50:59 51°10.302 2°42.394 23.5771 0.066494 0.351806 32.91806
2009-09-09 08:51:59 51°10.278 2°42.296 23.6001 0.074006 0.392986 32.91806
2009-09-09 08:52:59 51°10.254 2°42.2 23.6312 0.063407 0.335132 32.952884
2009-09-09 08:53:59 51°10.231 2°42.104 23.655 0.073286 0.3892 32.91806
2009-09-09 08:54:59 51°10.207 2°42.008 23.67 0.08121 0.43294 32.91806
2009-09-09 08:55:59 51°10.185 2°41.911 23.7055 0.079975 0.4262 32.883236
2009-09-09 08:56:59 51°10.162 2°41.815 23.7321 0.071537 0.379855 32.952884
2009-09-09 08:57:59 51°10.138 2°41.719 23.7437 0.071742 0.381126 32.883236
2009-09-09 08:58:59 51°10.116 2°41.621 23.7727 0.071434 0.379427 32.91806
2009-09-09 08:59:59 51°10.096 2°41.524 23.7919 0.067317 0.357027 32.987708
2009-09-09 09:00:59 51°10.082 2°41.429 23.8199 0.070919 0.376805 32.883236
2009-09-09 09:01:59 51°10.071 2°41.338 23.846 0.060834 0.321837 32.952884
2009-09-09 09:02:59 51°10.065 2°41.25 23.8607 0.069273 0.368031 32.952884
2009-09-09 09:03:59 51°10.062 2°41.17 23.8971 0.084092 0.44975 32.91806
2009-09-09 09:05:00 51°10.086 2°41.047 23.909 0.064847 0.343858 32.952884
2009-09-09 09:05:59 51°10.093 2°40.968 23.9384 0.076065 0.405645 32.952884
2009-09-09 09:07:00 51°10.086 2°40.907 23.9606 0.078432 0.41882 32.987708
2009-09-09 09:07:59 51°10.09 2°40.843 23.9733 0.055586 0.293713 33.022532
2009-09-09 09:08:59 51°10.119 2°40.835 24 0.058879 0.311721 33.057356
2009-09-09 09:09:59 51°10.122 2°40.947 24.0334 0.055997 0.296054 33.09218
2009-09-09 09:11:00 51°10.134 2°41.157 24.0482 0.052087 0.274903 33.09218
2009-09-09 09:12:00 51°10.132 2°41.403 24.0569 0.062275 0.330344 33.09218
2009-09-09 09:12:59 51°10.129 2°41.649 24.0756 0.050234 0.265033 33.057356
2009-09-09 09:14:00 51°10.126 2°41.904 24.0918 0.057747 0.305851 33.057356
2009-09-09 09:14:59 51°10.123 2°42.152 24.1049 0.054762 0.289741 33.022532
2009-09-09 09:15:59 51°10.121 2°42.327 24.126 0.051263 0.270816 33.057356
2009-09-09 09:16:59 51°10.098 2°42.357 24.1411 0.058776 0.311635 33.09218
2009-09-09 09:17:59 51°10.074 2°42.338 24.158 0.054145 0.286455 33.057356
2009-09-09 09:18:59 51°10.053 2°42.314 24.1781 0.057026 0.302195 33.09218
2009-09-09 09:19:59 51°10.034 2°42.287 24.1986 0.052601 0.278152 33.127004
2009-09-09 09:20:59 51°10.014 2°42.261 24.215 0.056718 0.300597 33.09218
2009-09-09 09:21:59 51°9.993 2°42.235 24.2271 0.058776 0.311878 33.057356
2009-09-09 09:23:00 51°9.973 2°42.208 24.2469 0.05291 0.280027 33.196653
2009-09-09 09:23:59 51°9.953 2°42.183 24.2672 0.051675 0.273387 33.161829
2009-09-09 09:25:00 51°9.932 2°42.156 24.2821 0.060834 0.323285 33.231477
2009-09-09 09:25:59 51°9.91 2°42.13 24.2988 0.058158 0.308707 33.266301
2009-09-09 09:26:59 51°9.885 2°42.114 24.3168 0.050955 0.269664 33.266301
2009-09-09 09:27:59 51°9.822 2°42.095 24.3416 0.053219 0.281901 33.231477
2009-09-09 09:29:00 51°9.79 2°41.966 24.3618 0.099941 0.540455 33.161829
2009-09-09 09:29:59 51°9.814 2°41.768 24.3797 0.088209 0.474808 33.161829
2009-09-09 09:30:59 51°9.855 2°41.48 24.4008 0.091605 0.493976 33.161829
2009-09-09 09:31:59 51°9.872 2°41.173 24.4177 0.082137 0.441258 33.196653
2009-09-09 09:32:59 51°9.883 2°40.859 24.4336 0.069684 0.372252 33.231477
2009-09-09 09:33:59 51°9.895 2°40.543 24.4584 0.083475 0.448821 33.127004
2009-09-09 09:34:59 51°9.907 2°40.223 24.4694 0.074418 0.398554 33.196653
2009-09-09 09:35:59 51°9.921 2°39.902 24.4843 0.087694 0.472506 33.09218
2009-09-09 09:36:59 51°9.937 2°39.585 24.4967 0.076168 0.408461 33.127004
2009-09-09 09:37:59 51°9.954 2°39.262 24.51 0.075756 0.406193 33.85831
2009-09-09 09:39:00 51°9.967 2°38.932 24.5179 0.094692 0.511912 33.823486
2009-09-09 09:39:59 51°9.981 2°38.613 24.5431 0.090061 0.48613 33.823486
2009-09-09 09:41:00 51°9.996 2°38.281 24.54 0.111365 0.606236 33.614541
2009-09-09 09:41:59 51°10.009 2°37.959 24.5689 0.095824 0.518558 33.649365
2009-09-09 09:43:00 51°10.022 2°37.629 24.5802 0.08615 0.464414 33.753837
2009-09-09 09:43:59 51°10.035 2°37.308 24.5886 0.088414 0.477251 33.719013
2009-09-09 09:44:59 51°10.075 2°36.995 24.6017 0.135448 0.744135 33.719013
2009-09-09 09:46:00 51°10.15 2°36.7 24.618 0.089958 0.486 33.649365
2009-09-09 09:46:59 51°10.242 2°36.443 24.6361 0.092943 0.502921 33.684189
2009-09-09 09:48:00 51°10.389 2°36.319 24.6391 0.107557 0.585459 33.649365
2009-09-09 09:48:59 51°10.532 2°36.385 24.6524 0.070096 0.375694 33.753837
2009-09-09 09:50:00 51°10.675 2°36.5 24.6654 0.060011 0.3201 33.753837
2009-09-09 09:50:59 51°10.821 2°36.584 24.6794 0.069376 0.371806 33.719013
2009-09-09 09:52:00 51°10.97 2°36.662 24.6861 0.057541 0.306757 33.823486
2009-09-09 09:53:00 51°11.115 2°36.745 24.7 0.059908 0.319792 33.823486
2009-09-09 09:54:00 51°11.261 2°36.817 24.7155 0.058776 0.313598 33.823486
2009-09-09 09:54:59 51°11.411 2°36.87 24.7264 0.05929 0.316512 33.823486
2009-09-09 09:55:59 51°11.561 2°36.93 24.7425 0.062275 0.333014 33.893134
2009-09-09 09:57:00 51°11.715 2°36.989 24.7497 0.064539 0.345553 33.823486
2009-09-09 09:57:59 51°11.864 2°37.047 24.7597 0.056821 0.303187 33.893134
2009-09-09 09:59:00 51°12.019 2°37.108 24.7705 0.058158 0.31059 33.893134
2009-09-09 09:59:59 51°12.17 2°37.156 24.7815 0.05929 0.316881 33.893134
2009-09-09 10:00:59 51°12.331 2°37.163 24.7955 0.059805 0.319736 33.927958
2009-09-09 10:02:00 51°12.492 2°37.166 24.8116 0.064745 0.347076 33.893134
2009-09-09 10:02:59 51°12.651 2°37.181 24.8137 0.059187 0.316543 33.893134
2009-09-09 10:03:59 51°12.807 2°37.219 24.8303 0.057129 0.305239 33.893134
2009-09-09 10:05:00 51°12.963 2°37.259 24.8421 0.054145 0.288925 33.962782
2009-09-09 10:06:00 51°13.121 2°37.298 24.859 0.054968 0.293528 33.927958
2009-09-09 10:07:00 51°13.28 2°37.338 24.8653 0.057644 0.308258 33.927958
2009-09-09 10:08:00 51°13.443 2°37.363 24.8773 0.060114 0.321881 33.962782
2009-09-09 10:08:59 51°13.603 2°37.299 24.8971 0.063407 0.340159 33.893134
2009-09-09 10:10:00 51°13.767 2°37.181 24.8932 0.075962 0.409962 33.997606
2009-09-09 10:11:00 51°13.92 2°37.037 24.9102 0.072875 0.392872 33.927958
2009-09-09 10:12:00 51°14.072 2°36.885 24.9127 0.066288 0.356296 33.962782
2009-09-09 10:13:00 51°14.216 2°36.723 24.925 0.073595 0.397003 33.962782
2009-09-09 10:13:59 51°14.346 2°36.525 24.9449 0.075242 0.406316 33.85831
2009-09-09 10:14:55 51°14.466 2°36.329 24.938 0.134419 0.743066 33.823486
2009-09-09 10:16:16 51°14.65 2°36.083 24.9646 0.089238 0.485076 33.823486
2009-09-09 10:17:16 51°14.811 2°35.999 24.969 0.078226 0.423264 33.823486
2009-09-09 10:18:16 51°14.976 2°35.936 24.9837 0.071846 0.387787 33.85831
2009-09-09 10:19:15 51°15.135 2°35.871 24.9911 0.063304 0.340383 33.893134
2009-09-09 10:20:16 51°15.301 2°35.805 25.0016 0.065259 0.351318 33.893134
2009-09-09 10:21:15 51°15.458 2°35.739 25.0058 0.066597 0.358863 33.823486
2009-09-09 10:22:16 51°15.618 2°35.661 25.012 0.07236 0.39101 33.753837
2009-09-09 10:23:15 51°15.769 2°35.58 25.0312 0.058982 0.316815 33.823486
2009-09-09 10:24:16 51°15.924 2°35.495 25.0352 0.065259 0.351634 33.85831
2009-09-09 10:25:16 51°16.077 2°35.413 25.037 0.071846 0.388374 33.753837
2009-09-09 10:26:15 51°16.227 2°35.331 25.0453 0.068141 0.367887 33.85831
2009-09-09 10:27:16 51°16.385 2°35.249 25.0538 0.062069 0.334223 33.85831
2009-09-09 10:28:16 51°16.54 2°35.168 25.0605 0.067523 0.364569 33.788661
2009-09-09 10:29:16 51°16.698 2°35.088 25.0813 0.063613 0.342929 33.85831
2009-09-09 10:30:16 51°16.856 2°35.009 25.0863 0.06989 0.378002 33.788661
2009-09-09 10:31:16 51°17.019 2°34.932 25.0927 0.071948 0.389539 33.788661
2009-09-09 10:32:16 51°17.183 2°34.853 25.0926 0.064024 0.345486 33.85831
2009-09-09 10:33:16 51°17.345 2°34.768 25.1123 0.062686 0.338087 33.85831
2009-09-09 10:34:16 51°17.502 2°34.663 25.0806 0.057026 0.306804 33.893134
2009-09-09 10:35:16 51°17.592 2°34.406 25.1467 0.059496 0.320565 33.893134
2009-09-09 10:36:16 51°17.596 2°34.083 25.1411 0.075859 0.411907 33.649365
2009-09-09 10:37:16 51°17.562 2°33.755 25.1572 0.082857 0.451446 33.719013
2009-09-09 10:38:16 51°17.566 2°33.423 25.1523 0.10097 0.554444 33.684189
2009-09-09 10:39:16 51°17.569 2°33.096 25.151 0.12567 0.696592 33.544893
2009-09-09 10:40:16 51°17.499 2°32.775 25.1596 0.123818 0.686057 33.544893
2009-09-09 10:41:15 51°17.385 2°32.49 25.157 0.076991 0.418782 33.753837
2009-09-09 10:42:16 51°17.257 2°32.204 25.1785 0.073904 0.401494 34.171726
2009-09-09 10:43:15 51°17.138 2°31.925 25.194 0.065671 0.355438 34.20655
2009-09-09 10:44:16 51°17.019 2°31.633 25.1803 0.08615 0.470782 34.20655
2009-09-09 10:45:16 51°16.903 2°31.344 25.1826 0.090782 0.49721 34.20655
2009-09-09 10:46:15 51°16.788 2°31.062 25.1797 0.098603 0.541822 34.102078
2009-09-09 10:47:16 51°16.669 2°30.771 25.2066 0.082137 0.44823 34.171726
2009-09-09 10:48:15 51°16.556 2°30.485 25.2205 0.072566 0.394419 34.102078
2009-09-09 10:49:16 51°16.435 2°30.192 25.1988 0.073595 0.400238 34.171726
2009-09-09 10:50:15 51°16.319 2°29.909 25.2236 0.099118 0.545139 34.136902
2009-09-09 10:51:16 51°16.199 2°29.614 25.2149 0.098397 0.541067 34.067254
2009-09-09 10:52:16 51°16.08 2°29.322 25.2507 0.064436 0.349074 34.136902
2009-09-09 10:53:16 51°15.96 2°29.03 25.2399 0.067009 0.363531 34.136902
2009-09-09 10:54:16 51°15.842 2°28.732 25.2462 0.089135 0.488516 34.067254
2009-09-09 10:55:16 51°15.748 2°28.418 25.2958 0.063304 0.3429 34.102078
2009-09-09 10:56:16 51°15.655 2°28.101 25.2582 0.069273 0.376425 34.067254
2009-09-09 10:57:16 51°15.563 2°27.784 25.2604 0.077403 0.422277 34.102078
2009-09-09 10:58:16 51°15.469 2°27.465 25.2426 0.255053 1.469759 34.03243
2009-09-09 10:59:16 51°15.377 2°27.151 25.2411 0.11507 0.637888 34.067254
2009-09-09 11:00:15 51°15.287 2°26.84 25.2903 0.091914 0.504863 33.997606
2009-09-09 11:01:16 51°15.268 2°26.512 25.2867 0.112394 0.622565 34.067254
2009-09-09 11:02:16 51°15.312 2°26.2 25.2887 0.126288 0.703252 33.927958
2009-09-09 11:03:16 51°15.332 2°25.885 25.2999 0.084504 0.462988 34.067254
2009-09-09 11:04:15 51°15.301 2°25.634 25.2867 0.076271 0.416431 34.03243
2009-09-09 11:05:16 51°15.258 2°25.394 25.3176 0.089752 0.492979 34.03243
2009-09-09 11:06:15 51°15.234 2°25.17 25.3128 0.103646 0.572668 33.997606
2009-09-09 11:07:16 51°15.226 2°25.014 25.3065 0.097162 0.535545 33.927958
2009-09-09 11:08:16 51°15.214 2°24.916 25.34 0.080696 0.441681 34.102078
2009-09-09 11:09:15 51°15.205 2°24.84 25.3263 0.074521 0.40679 33.962782
2009-09-09 11:10:16 51°15.199 2°24.759 25.3541 0.083681 0.458808 34.136902
2009-09-09 11:11:16 51°15.214 2°24.665 25.3521 0.082137 0.450133 34.03243
2009-09-09 11:12:16 51°15.233 2°24.593 25.3571 0.07483 0.408786 34.03243
2009-09-09 11:13:15 51°15.239 2°24.536 25.3581 0.071434 0.389676 34.067254
2009-09-09 11:14:16 51°15.23 2°24.483 25.3628 0.072463 0.395542 34.067254
2009-09-09 11:15:16 51°15.228 2°24.411 25.375 0.06598 0.359125 34.067254
2009-09-09 11:16:16 51°15.256 2°24.327 25.3807 0.074727 0.40855 34.067254
2009-09-09 11:17:16 51°15.301 2°24.266 25.3843 0.074521 0.40743 34.136902
2009-09-09 11:18:16 51°15.347 2°24.201 25.4062 0.07411 0.405167 34.136902
2009-09-09 11:19:16 51°15.392 2°24.135 25.4192 0.072566 0.396458 34.20655
2009-09-09 11:20:16 51°15.429 2°24.044 25.4171 0.084195 0.462561 34.171726
2009-09-09 11:21:16 51°15.468 2°23.958 25.4351 0.086562 0.47608 34.171726
2009-09-09 11:22:16 51°15.514 2°23.91 25.4355 0.070919 0.387288 34.136902
2009-09-09 11:23:15 51°15.556 2°23.912 25.4245 0.062275 0.338786 34.136902
2009-09-09 11:24:16 51°15.586 2°23.951 25.3334 0.06989 0.381639 34.136902
2009-09-09 11:25:16 51°15.602 2°24.02 25.2599 0.059599 0.323878 34.20655
2009-09-09 11:26:16 51°15.615 2°24.088 25.2857 0.053733 0.291184 34.136902
2009-09-09 11:27:16 51°15.631 2°24.156 25.2951 0.051161 0.277008 34.20655
2009-09-09 11:28:16 51°15.649 2°24.221 25.3118 0.053013 0.287325 34.20655
2009-09-09 11:29:15 51°15.665 2°24.282 25.3203 0.05219 0.282809 34.20655
2009-09-09 11:30:16 51°15.683 2°24.343 25.3383 0.055689 0.302321 34.241374
2009-09-09 11:31:16 51°15.701 2°24.408 25.3459 0.049 0.265192 34.241374
2009-09-09 11:32:16 51°15.725 2°24.468 25.3535 0.051264 0.277724 34.276198
2009-09-09 11:33:16 51°15.752 2°24.528 25.3636 0.05219 0.282908 34.20655
2009-09-09 11:34:16 51°15.776 2°24.589 25.3697 0.051367 0.278402 34.276198
2009-09-09 11:35:16 51°15.802 2°24.64 25.3756 0.053425 0.289832 34.20655
2009-09-09 11:36:16 51°15.837 2°24.684 25.4295 0.051161 0.277312 34.20655
2009-09-09 11:37:16 51°15.874 2°24.729 25.3907 0.049617 0.268716 34.311022
2009-09-09 11:38:15 51°15.909 2°24.772 25.4275 0.056512 0.307124 34.311022
2009-09-09 11:39:16 51°15.944 2°24.817 25.4246 0.050132 0.271698 34.276198
2009-09-09 11:40:16 51°15.98 2°24.867 25.4183 0.055586 0.302038 34.311022
2009-09-09 11:41:16 51°16.017 2°24.916 25.4169 0.055277 0.300315 34.241374
2009-09-09 11:42:16 51°16.05 2°24.963 25.429 0.054557 0.296396 34.311022
2009-09-09 11:43:16 51°16.082 2°25.014 25.4486 0.052293 0.283817 34.345846
2009-09-09 11:44:16 51°16.117 2°25.064 25.4281 0.053425 0.290182 34.20655
2009-09-09 11:45:16 51°16.151 2°25.11 25.45 0.054968 0.298802 34.276198
2009-09-09 11:46:16 51°16.188 2°25.153 25.4523 0.055689 0.302835 34.345846
2009-09-09 11:47:16 51°16.236 2°25.154 25.4997 0.051367 0.278752 34.345846
2009-09-09 11:48:16 51°16.287 2°25.122 25.5431 0.06104 0.33294 34.311022
2009-09-09 11:49:16 51°16.328 2°25.053 25.5634 0.066288 0.362497 34.345846
2009-09-09 11:50:16 51°16.356 2°24.951 25.5351 0.063922 0.349193 34.276198
2009-09-09 11:51:16 51°16.361 2°24.822 25.5496 0.070302 0.385234 34.276198
2009-09-09 11:52:16 51°16.339 2°24.684 25.5839 0.072052 0.395257 34.276198
2009-09-09 11:53:16 51°16.315 2°24.561 25.6007 0.085945 0.474464 34.38067
2009-09-09 11:54:16 51°16.306 2°24.457 25.5662 0.079255 0.436263 34.311022
2009-09-09 11:55:16 51°16.291 2°24.357 25.6086 0.079255 0.436403 34.276198
2009-09-09 11:56:16 51°16.276 2°24.257 25.6021 0.073389 0.402933 34.276198
2009-09-09 11:57:16 51°16.263 2°24.156 25.6053 0.078329 0.431199 34.20655
2009-09-09 11:58:16 51°16.255 2°24.06 25.6211 0.071228 0.390812 34.241374
2009-09-09 11:59:15 51°16.25 2°23.982 25.596 0.066494 0.364045 34.20655
2009-09-09 12:00:16 51°16.247 2°23.9 25.6016 0.062995 0.344387 34.20655
2009-09-09 12:01:16 51°16.236 2°23.829 25.6212 0.06351 0.347287 34.241374
2009-09-09 12:02:16 51°16.227 2°23.765 25.6399 0.066083 0.361823 34.20655
2009-09-09 12:03:16 51°16.254 2°23.747 25.6203 0.099941 0.555707 34.171726
2009-09-09 12:04:16 51°16.244 2°23.877 25.4878 0.060628 0.331177 34.136902
2009-09-09 12:05:16 51°16.24 2°24.119 25.5912 0.053322 0.290284 34.20655
2009-09-09 12:06:16 51°16.227 2°24.375 25.6055 0.061863 0.338234 34.171726
2009-09-09 12:07:16 51°16.209 2°24.639 25.6335 0.06598 0.361581 34.171726
2009-09-09 12:08:16 51°16.197 2°24.907 25.6096 0.068347 0.374984 34.171726
2009-09-09 12:09:16 51°16.185 2°25.166 25.567 0.052601 0.286361 34.171726
2009-09-09 12:10:16 51°16.172 2°25.305 25.5341 0.052499 0.285817 34.102078
2009-09-09 12:11:16 51°16.158 2°25.395 25.5449 0.052499 0.285847 34.20655
2009-09-09 12:12:16 51°16.143 2°25.467 25.6336 0.048691 0.264646 34.20655
2009-09-09 12:13:16 51°16.125 2°25.487 25.6033 0.047147 0.256048 34.03243
2009-09-09 12:14:16 51°16.104 2°25.481 25.6638 0.05466 0.297983 34.20655
2009-09-09 12:15:16 51°16.08 2°25.473 25.6313 0.049411 0.268716 34.171726
2009-09-09 12:16:16 51°16.06 2°25.46 25.621 0.049926 0.271592 34.136902
2009-09-09 12:17:16 51°16.039 2°25.446 25.6638 0.053425 0.291166 34.102078
2009-09-09 12:18:27 51°16.017 2°25.432 25.682 0.051778 0.281978 34.171726
2009-09-09 12:19:26 51°15.996 2°25.417 25.6874 0.058364 0.318856 34.20655
2009-09-09 12:20:36 51°15.963 2°25.427 25.5587 0.07092 0.389872 34.067254
2009-09-09 12:21:35 51°15.913 2°25.57 25.6086 0.047456 0.257929 34.171726
2009-09-09 12:22:36 51°15.855 2°25.787 25.6498 0.045912 0.249321 34.136902
2009-09-09 12:23:35 51°15.795 2°26.045 25.685 0.053939 0.294075 34.03243
2009-09-09 12:24:35 51°15.767 2°26.312 25.6926 0.051881 0.282613 33.927958
2009-09-09 12:25:35 51°15.757 2°26.583 25.6676 0.05219 0.284348 33.85831
2009-09-09 12:26:36 51°15.758 2°26.858 25.718 0.057335 0.313191 33.85831
2009-09-09 12:27:35 51°15.777 2°27.12 25.6773 0.049 0.266574 33.85831
2009-09-09 12:28:35 51°15.812 2°27.37 25.7074 0.049926 0.27174 33.927958
2009-09-09 12:29:36 51°15.867 2°27.619 25.6832 0.050646 0.275772 33.753837
2009-09-09 12:30:35 51°15.918 2°27.858 25.7082 0.04653 0.25281 33.893134
2009-09-09 12:31:36 51°15.97 2°28.11 25.6868 0.052087 0.283792 33.85831
2009-09-09 12:32:35 51°16.018 2°28.355 25.686 0.050029 0.27229 33.823486
2009-09-09 12:33:35 51°16.067 2°28.603 25.7061 0.050955 0.277471 33.823486
2009-09-09 12:34:35 51°16.119 2°28.852 25.6801 0.05219 0.284338 33.823486
2009-09-09 12:35:35 51°16.167 2°29.102 25.6881 0.051264 0.279238 33.893134
2009-09-09 12:36:35 51°16.216 2°29.346 25.6991 0.055586 0.303395 33.893134
2009-09-09 12:37:35 51°16.237 2°29.485 25.6955 0.0561 0.306329 33.927958
2009-09-09 12:38:35 51°16.233 2°29.53 25.7299 0.051778 0.282182 33.927958
2009-09-09 12:39:36 51°16.209 2°29.534 25.7292 0.051881 0.282727 33.893134
2009-09-09 12:40:36 51°16.183 2°29.527 25.7104 0.058159 0.317946 33.962782
2009-09-09 12:41:35 51°16.155 2°29.515 25.7401 0.052087 0.283872 33.893134
2009-09-09 12:42:35 51°16.128 2°29.502 25.6931 0.06104 0.334189 33.962782
2009-09-09 12:43:35 51°16.103 2°29.491 25.6659 0.053939 0.294277 33.927958
2009-09-09 12:44:36 51°16.076 2°29.515 25.601 0.051778 0.282206 33.893134
2009-09-09 12:45:36 51°16.087 2°29.565 25.6789 0.052499 0.286234 33.893134
2009-09-09 12:46:36 51°16.164 2°29.651 25.7702 0.057027 0.3116 33.927958
2009-09-09 12:47:36 51°16.253 2°29.817 25.7831 0.051058 0.278167 33.893134
2009-09-09 12:48:35 51°16.341 2°30.034 25.7654 0.050235 0.27361 33.893134
2009-09-09 12:49:36 51°16.426 2°30.276 25.7514 0.048691 0.265035 33.962782
2009-09-09 12:50:35 51°16.511 2°30.504 25.7579 0.053013 0.289225 33.927958
2009-09-09 12:51:36 51°16.587 2°30.754 25.7844 0.053425 0.29154 33.823486
2009-09-09 12:52:35 51°16.663 2°30.998 25.7714 0.045912 0.249595 33.927958
2009-09-09 12:53:35 51°16.739 2°31.244 25.7917 0.049617 0.270232 33.893134
2009-09-09 12:54:36 51°16.843 2°31.46 25.8195 0.047971 0.26105 33.85831
2009-09-09 12:55:35 51°16.962 2°31.646 25.8123 0.053631 0.292641 33.85831
2009-09-09 12:56:36 51°17.082 2°31.838 25.8033 0.056718 0.310129 33.893134
2009-09-09 12:57:36 51°17.198 2°32.03 25.8331 0.052704 0.287567 33.85831
2009-09-09 12:58:36 51°17.305 2°32.241 25.7999 0.061966 0.339679 33.753837
2009-09-09 12:59:35 51°17.383 2°32.484 25.8153 0.048691 0.265161 33.85831
2009-09-09 13:00:36 51°17.461 2°32.74 25.8507 0.049411 0.26922 33.823486
2009-09-09 13:01:35 51°17.538 2°32.981 25.8292 0.051161 0.278962 33.85831
2009-09-09 13:02:36 51°17.625 2°33.231 25.8035 0.051058 0.278421 33.893134
2009-09-09 13:03:36 51°17.71 2°33.471 25.8554 0.062172 0.34089 33.85831
2009-09-09 13:04:36 51°17.798 2°33.712 25.8297 0.05044 0.274995 33.823486
2009-09-09 13:05:36 51°17.886 2°33.956 25.8736 0.050749 0.27674 33.823486
2009-09-09 13:06:36 51°17.976 2°34.201 25.8348 0.052396 0.285935 33.823486
2009-09-09 13:07:36 51°18.065 2°34.442 25.851 0.048794 0.265772 33.788661
2009-09-09 13:08:36 51°18.154 2°34.686 25.8649 0.052293 0.285384 33.753837
2009-09-09 13:09:36 51°18.241 2°34.927 25.8629 0.05044 0.27499 33.753837
2009-09-09 13:10:36 51°18.329 2°35.174 25.8498 0.060011 0.328744 33.684189
2009-09-09 13:11:36 51°18.419 2°35.421 25.8568 0.050337 0.274449 33.788661
2009-09-09 13:12:36 51°18.509 2°35.668 25.8525 0.049103 0.267531 33.753837
2009-09-09 13:13:36 51°18.598 2°35.915 25.8945 0.051367 0.280197 33.85831
2009-09-09 13:14:36 51°18.652 2°36.086 25.7326 0.07802 0.431216 33.719013
2009-09-09 13:15:36 51°18.679 2°36.191 25.8883 0.050337 0.274468 33.788661
2009-09-09 13:16:36 51°18.696 2°36.274 25.8805 0.050646 0.276218 33.753837
2009-09-09 13:17:36 51°18.687 2°36.3 25.8745 0.053836 0.294058 33.823486
2009-09-09 13:18:38 51°18.67 2°36.303 25.8612 0.06032 0.330585 33.893134
2009-09-09 13:19:36 51°18.654 2°36.306 25.882 0.054454 0.297595 33.753837
2009-09-09 13:20:36 51°18.638 2°36.309 25.8884 0.051778 0.282579 33.788661
2009-09-09 13:21:36 51°18.623 2°36.31 25.8973 0.053733 0.293538 33.823486
2009-09-09 13:22:36 51°18.6 2°36.334 25.7085 0.071537 0.39428 33.85831
2009-09-09 13:23:37 51°18.558 2°36.491 25.8227 0.047147 0.256765 33.788661
2009-09-09 13:24:36 51°18.488 2°36.714 25.9021 0.072669 0.400761 33.823486
2009-09-09 13:25:36 51°18.373 2°36.938 25.8976 0.053013 0.28953 33.788661
2009-09-09 13:26:36 51°18.26 2°37.177 25.8615 0.060011 0.328925 33.927958
2009-09-09 13:27:36 51°18.141 2°37.408 25.8871 0.062995 0.345788 34.136902
2009-09-09 13:28:36 51°18.017 2°37.631 25.9168 0.057335 0.313862 33.962782
2009-09-09 13:29:36 51°17.897 2°37.857 25.9012 0.063407 0.348217 34.03243
2009-09-09 13:30:36 51°17.777 2°38.082 25.6795 0.099118 0.553142 33.893134
2009-09-09 13:31:36 51°17.658 2°38.311 25.8168 0.061143 0.335453 33.997606
2009-09-09 13:32:36 51°17.558 2°38.517 25.7028 0.063613 0.349432 33.927958
2009-09-09 13:33:36 51°17.535 2°38.602 25.7371 0.056409 0.308754 34.03243
2009-09-09 13:34:36 51°17.524 2°38.621 25.7914 0.054763 0.299487 33.997606
2009-09-09 13:35:36 51°17.512 2°38.627 25.778 0.056718 0.31053 33.997606
2009-09-09 13:36:36 51°17.502 2°38.636 25.7621 0.062069 0.340811 33.893134
2009-09-09 13:37:36 51°17.491 2°38.645 25.7353 0.064539 0.35473 34.102078
2009-09-09 13:38:36 51°17.481 2°38.653 25.8235 0.054454 0.297816 34.03243
2009-09-09 13:39:36 51°17.467 2°38.673 25.6677 0.063098 0.346648 33.997606
2009-09-09 13:40:36 51°17.433 2°38.791 25.8993 0.047147 0.256945 33.997606
2009-09-09 13:41:36 51°17.325 2°38.917 25.8606 0.050235 0.274211 33.997606
2009-09-09 13:42:36 51°17.196 2°39.032 25.8773 0.06423 0.353068 33.962782
2009-09-09 13:43:36 51°17.021 2°39.095 25.8989 0.052807 0.288749 33.85831
2009-09-09 13:44:36 51°16.836 2°39.14 25.9291 0.075345 0.41643 33.823486
2009-09-09 13:45:36 51°16.653 2°39.188 25.8912 0.15593 0.888622 33.823486
2009-09-09 13:46:36 51°16.473 2°39.237 25.9076 0.072772 0.401844 33.788661
2009-09-09 13:47:36 51°16.292 2°39.286 25.8884 0.086356 0.4798 33.788661
2009-09-09 13:48:36 51°16.113 2°39.328 25.8582 0.065877 0.362544 33.788661
2009-09-09 13:49:36 51°15.935 2°39.379 25.7592 0.184646 1.061226 33.684189
2009-09-09 13:50:36 51°15.756 2°39.431 25.9283 0.083784 0.46502 33.544893
2009-09-09 13:51:36 51°15.578 2°39.45 25.8793 0.150166 0.854568 33.544893
2009-09-09 13:52:36 51°15.401 2°39.414 25.8993 0.07236 0.399608 33.614541
2009-09-09 13:53:36 51°15.226 2°39.37 25.8683 0.09212 0.513283 33.579717
2009-09-09 13:54:36 51°15.049 2°39.333 25.9474 0.081622 0.45276 33.579717
2009-09-09 13:55:36 51°14.902 2°39.321 25.7566 0.057027 0.31255 33.579717
2009-09-09 13:56:36 51°14.856 2°39.378 25.8208 0.06104 0.335289 33.544893
2009-09-09 13:57:36 51°14.849 2°39.394 25.8897 0.060834 0.334089 33.579717
2009-09-09 13:58:36 51°14.843 2°39.401 25.8734 0.061452 0.337654 33.649365
2009-09-09 13:59:36 51°14.835 2°39.414 25.8138 0.096648 0.539661 33.579717
2009-09-09 14:00:36 51°14.808 2°39.5 25.646 0.065054 0.358081 33.579717
2009-09-09 14:01:36 51°14.802 2°39.64 25.7696 0.050749 0.277369 33.544893
2009-09-09 14:02:35 51°14.795 2°39.687 25.8056 0.056718 0.310943 33.544893
2009-09-09 14:03:36 51°14.786 2°39.708 25.8431 0.06351 0.349365 33.614541
2009-09-09 14:04:36 51°14.777 2°39.728 25.8212 0.056615 0.310363 33.649365
2009-09-09 14:05:36 51°14.77 2°39.748 25.7723 0.0561 0.307442 33.684189
2009-09-09 14:06:36 51°14.76 2°39.767 25.8635 0.056409 0.309225 33.544893
2009-09-09 14:07:37 51°14.752 2°39.784 25.8478 0.054454 0.29828 33.649365
2009-09-09 14:08:36 51°14.745 2°39.8 25.8985 0.05291 0.289592 33.614541
2009-09-09 14:09:36 51°14.734 2°39.823 25.757 0.075962 0.420551 33.614541
2009-09-09 14:10:36 51°14.699 2°39.966 25.8199 0.049308 0.26945 33.719013
2009-09-09 14:11:36 51°14.642 2°40.245 25.9492 0.046633 0.254528 33.510069
2009-09-09 14:12:35 51°14.588 2°40.542 25.9203 0.067626 0.372939 33.614541
2009-09-09 14:13:36 51°14.563 2°40.852 25.874 0.057335 0.314569 33.579717
2009-09-09 14:14:36 51°14.574 2°41.162 25.8507 0.068141 0.37593 33.510069
2009-09-09 14:15:36 51°14.546 2°41.468 25.9623 0.060217 0.33095 33.440421
2009-09-09 14:16:37 51°14.502 2°41.776 25.8747 0.051161 0.279922 33.475245
2009-09-09 14:17:36 51°14.481 2°42.084 25.8463 0.048691 0.26607 33.335949
2009-09-09 14:18:36 51°14.486 2°42.397 25.8178 0.046015 0.25114 33.301125
2009-09-09 14:19:36 51°14.527 2°42.702 25.8896 0.053836 0.295 33.301125
2009-09-09 14:20:36 51°14.585 2°42.999 25.8641 0.049 0.267836 33.301125
2009-09-09 14:21:36 51°14.67 2°43.28 25.914 0.054248 0.297333 33.266301
2009-09-09 14:22:36 51°14.755 2°43.558 25.909 0.050852 0.27823 33.266301
2009-09-09 14:23:37 51°14.843 2°43.848 25.9061 0.047868 0.261526 33.266301
2009-09-09 14:24:36 51°14.928 2°44.129 25.913 0.058056 0.318823 33.335949
2009-09-09 14:25:37 51°15.012 2°44.422 25.942 0.049926 0.273076 33.231477
2009-09-09 14:26:36 51°15.093 2°44.706 25.9316 0.048279 0.26381 33.335949
2009-09-09 14:27:36 51°15.14 2°44.871 25.8587 0.057953 0.318303 33.301125
2009-09-09 14:28:36 51°15.158 2°44.937 25.951 0.051367 0.281132 33.231477
2009-09-09 14:29:38 51°15.151 2°44.963 25.8908 0.06423 0.353894 33.405597
2009-09-09 14:30:36 51°15.146 2°44.982 25.8941 0.072875 0.403212 33.405597
2009-09-09 14:31:36 51°15.144 2°45.004 25.8829 0.063201 0.348161 33.266301
2009-09-09 14:32:36 51°15.141 2°45.028 25.9115 0.051572 0.282447 33.301125
2009-09-09 14:33:36 51°15.139 2°45.053 25.8956 0.050235 0.274947 33.335949
2009-09-09 14:34:36 51°15.135 2°45.083 25.827 0.062378 0.343493 33.405597
2009-09-09 14:35:36 51°15.132 2°45.113 25.8723 0.051881 0.284211 33.370773
2009-09-09 14:36:36 51°15.128 2°45.145 25.7513 0.077712 0.431064 33.301125
2009-09-09 14:37:36 51°15.122 2°45.229 25.8023 0.054557 0.299304 33.405597
2009-09-09 14:38:36 51°15.133 2°45.412 26.0244 0.046015 0.251321 33.301125
2009-09-09 14:39:37 51°15.138 2°45.646 25.9909 0.045398 0.247918 33.266301
2009-09-09 14:40:36 51°15.136 2°45.945 26.0099 0.047456 0.259426 33.301125
2009-09-09 14:41:36 51°15.129 2°46.269 25.9931 0.049 0.268067 33.301125
2009-09-09 14:42:36 51°15.12 2°46.591 25.9882 0.049103 0.268667 33.231477
2009-09-09 14:43:36 51°15.114 2°46.91 25.9821 0.065465 0.361161 33.231477
2009-09-09 14:44:36 51°15.107 2°47.228 25.9898 0.055998 0.307473 33.579717
2009-09-09 14:45:36 51°15.099 2°47.547 26.0172 0.053528 0.293555 33.544893
2009-09-09 14:46:36 51°15.091 2°47.865 26.0028 0.048485 0.265204 33.510069
2009-09-09 14:47:36 51°15.082 2°48.186 26.0149 0.051984 0.2849 33.510069
2009-09-09 14:48:37 51°15.079 2°48.513 26.0121 0.058467 0.321509 33.475245
2009-09-09 14:49:36 51°15.071 2°48.827 25.9799 0.061863 0.340725 33.544893
2009-09-09 14:50:36 51°15.054 2°49.146 26.0235 0.056615 0.31102 33.335949
2009-09-09 14:51:36 51°15.029 2°49.464 24.4931 0.066597 0.367674 33.301125
2009-09-09 14:52:36 51°15.007 2°49.782 24.9243 0.083166 0.46285 33.196653
2009-09-09 14:53:36 51°15 2°50.1 24.7135 0.066083 0.364788 33.266301
2009-09-09 14:54:36 51°14.995 2°50.419 24.8811 0.071434 0.395391 33.196653
2009-09-09 14:55:36 51°14.989 2°50.735 24.8897 0.065568 0.361935 33.196653
2009-09-09 14:56:36 51°14.984 2°51.049 25.0441 0.065568 0.361928 33.161829
2009-09-09 14:57:36 51°14.976 2°51.364 25.0123 0.073389 0.406683 33.09218
2009-09-09 14:58:36 51°14.967 2°51.674 25.0745 0.065877 0.36368 33.022532
2009-09-09 14:59:37 51°14.959 2°51.991 25.1551 0.06598 0.364312 33.022532
2009-09-09 15:00:36 51°14.947 2°52.297 25.0602 0.056512 0.310604 33.022532
2009-09-09 15:01:35 51°14.917 2°52.603 24.8134 0.055277 0.303581 33.057356
2009-09-09 15:02:35 51°14.888 2°52.913 25.1019 0.060937 0.335693 32.883236
2009-09-09 15:03:35 51°14.865 2°53.228 25.0082 0.086871 0.484338 32.91806
2009-09-09 15:04:36 51°14.823 2°53.537 25.1968 0.067318 0.372014 32.952884
2009-09-09 15:05:36 51°14.758 2°53.825 25.1617 0.063613 0.350863 32.952884
2009-09-09 15:06:36 51°14.696 2°54.115 24.984 0.064539 0.356171 33.405597
2009-09-09 15:07:36 51°14.613 2°54.393 24.9291 0.094693 0.529769 33.266301
2009-09-09 15:08:36 51°14.524 2°54.662 25.0731 0.075962 0.4214 33.266301
2009-09-09 15:09:36 51°14.424 2°54.923 25.0902 0.07164 0.396654 33.335949
2009-09-09 15:10:37 51°14.308 2°55.163 25.1087 0.061452 0.338589 33.405597
2009-09-09 15:11:37 51°14.192 2°55.347 25.1416 0.060937 0.335699 33.405597
2009-09-09 15:12:36 51°14.067 2°55.449 25.0696 0.066906 0.369665 33.475245
2009-09-09 15:13:36 51°13.949 2°55.536 25.0865 0.063819 0.352097 33.510069
2009-09-09 15:14:36 51°13.84 2°55.617 25.0678 0.068141 0.376726 33.544893
2009-09-09 15:15:40 51°13.754 2°55.721 25.0652 0.071949 0.398486 33.579717
2009-09-09 15:16:40 51°13.703 2°55.826 25.0716 0.075551 0.419127 33.614541
2009-09-09 15:17:40 51°13.673 2°55.919 25.0651 0.075756 0.420301 33.649365
2009-09-09 15:18:40 51°13.662 2°55.956 25.0899 0.069376 0.383726 33.649365